createdAt,value
2019-03-04T00:00:42.727Z,99.99
2019-03-04T00:01:42.701Z,99.99
2019-03-04T00:02:42.683Z,99.99
2019-03-04T00:03:42.664Z,99.99
2019-03-04T00:04:42.636Z,99.99
2019-03-04T00:05:42.662Z,99.99
2019-03-04T00:06:42.594Z,99.99
2019-03-04T00:07:42.581Z,99.99
2019-03-04T00:08:42.558Z,99.99
2019-03-04T00:09:42.529Z,99.99
2019-03-04T00:10:42.509Z,99.99
2019-03-04T00:11:42.496Z,99.99
2019-03-04T00:12:42.467Z,99.99
2019-03-04T00:13:42.445Z,99.99
2019-03-04T00:14:42.425Z,99.99
2019-03-04T00:15:42.403Z,99.99
2019-03-04T00:16:42.382Z,99.99
2019-03-04T00:17:42.362Z,99.99
2019-03-04T00:18:42.340Z,99.99
2019-03-04T00:19:42.318Z,99.99
2019-03-04T00:20:42.296Z,99.99
2019-03-04T00:21:42.276Z,99.99
2019-03-04T00:22:42.259Z,99.99
2019-03-04T00:23:42.234Z,99.99
2019-03-04T00:24:42.216Z,99.99
2019-03-04T00:25:42.193Z,99.99
2019-03-04T00:26:42.178Z,99.99
2019-03-04T00:27:42.151Z,99.99
2019-03-04T00:28:42.129Z,99.99
2019-03-04T00:29:42.122Z,99.99
2019-03-04T00:30:42.093Z,99.99
2019-03-04T00:31:42.065Z,99.99
2019-03-04T00:32:42.047Z,99.99
2019-03-04T00:33:42.022Z,99.99
2019-03-04T00:34:42.001Z,99.99
2019-03-04T00:35:41.979Z,99.99
2019-03-04T00:36:41.963Z,99.99
2019-03-04T00:37:41.951Z,99.99
2019-03-04T00:38:41.927Z,99.99
2019-03-04T00:39:41.896Z,99.99
2019-03-04T00:40:41.875Z,99.99
2019-03-04T00:41:41.855Z,99.99
2019-03-04T00:42:41.832Z,99.99
2019-03-04T00:43:41.814Z,99.99
2019-03-04T00:44:41.802Z,99.99
2019-03-04T00:45:41.769Z,99.99
2019-03-04T00:46:41.750Z,99.99
2019-03-04T00:47:41.727Z,99.99
2019-03-04T00:48:41.758Z,99.99
2019-03-04T00:49:41.688Z,99.99
2019-03-04T00:50:41.663Z,99.99
2019-03-04T00:51:41.651Z,99.99
2019-03-04T00:52:41.627Z,99.99
2019-03-04T00:53:41.607Z,99.99
2019-03-04T00:54:41.580Z,99.99
2019-03-04T00:55:41.569Z,99.99
2019-03-04T00:56:41.539Z,99.99
2019-03-04T00:57:41.516Z,99.99
2019-03-04T00:58:41.498Z,99.99
2019-03-04T00:59:41.477Z,99.99
2019-03-04T01:00:41.454Z,99.99
2019-03-04T01:01:41.431Z,99.99
2019-03-04T01:02:41.411Z,99.99
2019-03-04T01:03:41.399Z,99.99
2019-03-04T01:04:41.369Z,99.99
2019-03-04T01:05:41.356Z,99.99
2019-03-04T01:06:41.326Z,99.99
2019-03-04T01:07:41.310Z,99.99
2019-03-04T01:08:41.286Z,99.99
2019-03-04T01:09:41.268Z,99.99
2019-03-04T01:10:41.249Z,99.99
2019-03-04T01:11:41.220Z,99.99
2019-03-04T01:12:41.199Z,99.99
2019-03-04T01:13:41.179Z,99.99
2019-03-04T01:14:41.167Z,99.99
2019-03-04T01:15:41.144Z,99.99
2019-03-04T01:16:41.115Z,99.99
2019-03-04T01:17:41.094Z,99.99
2019-03-04T01:18:41.073Z,99.99
2019-03-04T01:19:41.058Z,99.99
2019-03-04T01:20:41.031Z,99.99
2019-03-04T01:21:41.010Z,99.99
2019-03-04T01:22:40.988Z,99.99
2019-03-04T01:23:40.967Z,99.99
2019-03-04T01:24:40.945Z,99.99
2019-03-04T01:25:40.926Z,99.99
2019-03-04T01:26:40.905Z,99.99
2019-03-04T01:27:40.882Z,99.99
2019-03-04T01:28:40.861Z,99.99
2019-03-04T01:29:40.842Z,99.99
2019-03-04T01:30:40.970Z,99.99
2019-03-04T01:31:40.798Z,99.99
2019-03-04T01:32:40.779Z,99.99
2019-03-04T01:33:40.756Z,99.99
2019-03-04T01:34:40.734Z,99.99
2019-03-04T01:35:40.715Z,99.99
2019-03-04T01:36:40.693Z,99.99
2019-03-04T01:37:40.671Z,99.99
2019-03-04T01:38:40.653Z,99.99
2019-03-04T01:39:40.629Z,99.99
2019-03-04T01:40:40.615Z,99.99
2019-03-04T01:41:40.585Z,99.99
2019-03-04T01:42:40.573Z,99.99
2019-03-04T01:43:40.544Z,99.99
2019-03-04T01:44:40.524Z,99.99
2019-03-04T01:45:40.501Z,99.99
2019-03-04T01:46:40.481Z,99.99
2019-03-04T01:47:40.469Z,99.99
2019-03-04T01:48:40.437Z,99.99
2019-03-04T01:49:40.416Z,99.99
2019-03-04T01:50:40.400Z,99.99
2019-03-04T01:51:40.374Z,99.99
2019-03-04T01:52:40.411Z,99.99
2019-03-04T01:53:40.336Z,99.99
2019-03-04T01:54:40.321Z,99.99
2019-03-04T01:55:40.289Z,99.99
2019-03-04T01:56:40.268Z,99.99
2019-03-04T01:57:40.244Z,99.99
2019-03-04T01:58:40.227Z,99.99
2019-03-04T01:59:40.208Z,99.99
2019-03-04T02:00:40.190Z,99.99
2019-03-04T02:01:40.161Z,99.99
2019-03-04T02:02:40.140Z,99.99
2019-03-04T02:03:40.136Z,99.99
2019-03-04T02:04:40.098Z,99.99
2019-03-04T02:05:40.091Z,99.99
2019-03-04T02:06:40.056Z,99.99
2019-03-04T02:07:40.035Z,99.99
2019-03-04T02:08:40.021Z,99.99
2019-03-04T02:09:39.990Z,99.99
2019-03-04T02:10:39.971Z,99.99
2019-03-04T02:11:39.949Z,99.99
2019-03-04T02:12:39.927Z,99.99
2019-03-04T02:13:39.905Z,99.99
2019-03-04T02:14:39.884Z,99.99
2019-03-04T02:15:39.864Z,99.99
2019-03-04T02:16:39.843Z,99.99
2019-03-04T02:17:39.822Z,99.99
2019-03-04T02:18:39.801Z,99.99
2019-03-04T02:19:39.778Z,99.99
2019-03-04T02:20:39.765Z,99.99
2019-03-04T02:21:39.762Z,99.99
2019-03-04T02:22:39.743Z,99.99
2019-03-04T02:23:39.695Z,99.99
2019-03-04T02:24:39.674Z,99.99
2019-03-04T02:25:39.653Z,99.99
2019-03-04T02:26:39.632Z,99.99
2019-03-04T02:27:39.610Z,99.99
2019-03-04T02:28:39.592Z,99.99
2019-03-04T02:29:39.568Z,99.99
2019-03-04T02:30:39.557Z,99.99
2019-03-04T02:31:39.532Z,99.99
2019-03-04T02:32:39.507Z,99.99
2019-03-04T02:33:39.488Z,99.99
2019-03-04T02:34:39.468Z,99.99
2019-03-04T02:35:39.441Z,99.99
2019-03-04T02:36:39.418Z,99.99
2019-03-04T02:37:39.399Z,99.99
2019-03-04T02:38:39.397Z,99.99
2019-03-04T02:39:39.354Z,99.99
2019-03-04T02:40:39.339Z,99.99
2019-03-04T02:41:39.318Z,99.99
2019-03-04T02:42:39.295Z,99.99
2019-03-04T02:43:39.283Z,99.99
2019-03-04T02:44:39.257Z,99.99
2019-03-04T02:45:39.231Z,99.99
2019-03-04T02:46:39.218Z,99.99
2019-03-04T02:47:39.247Z,99.99
2019-03-04T02:48:39.167Z,99.99
2019-03-04T02:49:39.146Z,99.99
2019-03-04T02:50:39.126Z,99.99
2019-03-04T02:51:39.101Z,99.99
2019-03-04T02:52:39.085Z,99.99
2019-03-04T02:53:39.059Z,99.99
2019-03-04T02:54:39.037Z,99.99
2019-03-04T02:55:39.020Z,99.95
2019-03-04T02:56:39.000Z,99.85
2019-03-04T02:57:38.974Z,99.99
2019-03-04T02:58:38.965Z,99.28
2019-03-04T02:59:38.933Z,99.37
2019-03-04T03:00:38.912Z,98.71
2019-03-04T03:01:38.898Z,98.99
2019-03-04T03:02:38.873Z,99.08
2019-03-04T03:03:38.851Z,98.99
2019-03-04T03:04:38.824Z,99.18
2019-03-04T03:05:38.804Z,99.28
2019-03-04T03:06:38.783Z,99.37
2019-03-04T03:07:38.763Z,98.99
2019-03-04T03:08:38.741Z,99.47
2019-03-04T03:09:38.719Z,98.90
2019-03-04T03:10:38.698Z,98.99
2019-03-04T03:11:38.679Z,99.37
2019-03-04T03:12:38.660Z,99.28
2019-03-04T03:13:38.636Z,98.90
2019-03-04T03:14:38.645Z,99.37
2019-03-04T03:15:38.597Z,99.28
2019-03-04T03:16:38.572Z,98.99
2019-03-04T03:17:38.549Z,98.71
2019-03-04T03:18:38.529Z,98.90
2019-03-04T03:19:38.507Z,98.99
2019-03-04T03:20:38.487Z,99.28
2019-03-04T03:21:38.464Z,99.18
2019-03-04T03:22:38.461Z,99.08
2019-03-04T03:23:38.501Z,99.37
2019-03-04T03:24:38.400Z,99.37
2019-03-04T03:25:38.380Z,98.90
2019-03-04T03:26:38.360Z,98.99
2019-03-04T03:27:38.339Z,99.08
2019-03-04T03:28:38.317Z,98.99
2019-03-04T03:29:38.294Z,98.90
2019-03-04T03:30:38.274Z,98.90
2019-03-04T03:31:38.262Z,98.99
2019-03-04T03:32:38.232Z,99.47
2019-03-04T03:33:38.217Z,99.08
2019-03-04T03:34:38.191Z,99.28
2019-03-04T03:35:38.183Z,99.08
2019-03-04T03:36:38.145Z,99.28
2019-03-04T03:37:38.131Z,98.90
2019-03-04T03:38:38.109Z,99.47
2019-03-04T03:39:38.080Z,99.18
2019-03-04T03:40:38.063Z,98.90
2019-03-04T03:41:38.045Z,99.47
2019-03-04T03:42:38.028Z,99.28
2019-03-04T03:43:37.996Z,99.28
2019-03-04T03:44:37.977Z,99.47
2019-03-04T03:45:37.972Z,99.95
2019-03-04T03:46:37.950Z,99.66
2019-03-04T03:47:37.912Z,99.99
2019-03-04T03:48:37.892Z,99.76
2019-03-04T03:49:37.879Z,99.76
2019-03-04T03:50:37.847Z,99.99
2019-03-04T03:51:37.826Z,99.47
2019-03-04T03:52:37.805Z,99.18
2019-03-04T03:53:37.834Z,99.28
2019-03-04T03:54:37.764Z,99.28
2019-03-04T03:55:37.743Z,99.28
2019-03-04T03:56:37.732Z,99.95
2019-03-04T03:57:37.710Z,99.47
2019-03-04T03:58:37.696Z,99.57
2019-03-04T03:59:37.656Z,99.47
2019-03-04T04:00:37.661Z,99.37
2019-03-04T04:01:37.622Z,99.18
2019-03-04T04:02:37.621Z,99.28
2019-03-04T04:03:37.583Z,99.28
2019-03-04T04:04:37.550Z,99.28
2019-03-04T04:05:37.527Z,98.99
2019-03-04T04:06:37.513Z,99.37
2019-03-04T04:07:37.488Z,99.28
2019-03-04T04:08:37.465Z,99.99
2019-03-04T04:09:37.445Z,99.99
2019-03-04T04:10:37.425Z,99.47
2019-03-04T04:11:37.400Z,99.57
2019-03-04T04:12:37.491Z,99.37
2019-03-04T04:13:37.359Z,99.37
2019-03-04T04:14:37.344Z,99.28
2019-03-04T04:15:37.364Z,99.57
2019-03-04T04:16:37.302Z,99.66
2019-03-04T04:17:37.273Z,99.71
2019-03-04T04:18:37.250Z,99.28
2019-03-04T04:19:37.228Z,99.13
2019-03-04T04:20:37.213Z,99.66
2019-03-04T04:21:37.187Z,99.32
2019-03-04T04:22:37.168Z,99.61
2019-03-04T04:23:37.148Z,99.28
2019-03-04T04:24:37.122Z,99.08
2019-03-04T04:25:37.104Z,99.37
2019-03-04T04:26:37.092Z,99.23
2019-03-04T04:27:37.073Z,98.90
2019-03-04T04:28:37.037Z,98.90
2019-03-04T04:29:37.021Z,98.23
2019-03-04T04:30:36.997Z,98.52
2019-03-04T04:31:36.973Z,98.71
2019-03-04T04:32:36.953Z,98.61
2019-03-04T04:33:36.931Z,98.03
2019-03-04T04:34:36.916Z,97.85
2019-03-04T04:35:36.889Z,97.66
2019-03-04T04:36:36.868Z,97.85
2019-03-04T04:37:36.848Z,96.80
2019-03-04T04:38:36.825Z,96.98
2019-03-04T04:39:36.873Z,96.80
2019-03-04T04:40:36.781Z,96.51
2019-03-04T04:41:36.761Z,95.94
2019-03-04T04:42:36.745Z,96.61
2019-03-04T04:43:36.717Z,96.03
2019-03-04T04:44:36.696Z,95.36
2019-03-04T04:45:36.676Z,95.65
2019-03-04T04:46:36.653Z,94.89
2019-03-04T04:47:36.631Z,94.89
2019-03-04T04:48:36.612Z,94.03
2019-03-04T04:49:36.590Z,94.12
2019-03-04T04:50:36.569Z,93.74
2019-03-04T04:51:36.545Z,92.79
2019-03-04T04:52:36.525Z,91.97
2019-03-04T04:53:36.504Z,90.83
2019-03-04T04:54:36.482Z,91.02
2019-03-04T04:55:36.460Z,90.92
2019-03-04T04:56:36.439Z,90.83
2019-03-04T04:57:36.418Z,91.02
2019-03-04T04:58:36.401Z,89.87
2019-03-04T04:59:36.377Z,89.39
2019-03-04T05:00:36.353Z,89.20
2019-03-04T05:01:36.343Z,88.63
2019-03-04T05:02:36.313Z,88.92
2019-03-04T05:03:36.291Z,88.63
2019-03-04T05:04:36.368Z,88.06
2019-03-04T05:05:36.246Z,88.15
2019-03-04T05:06:36.224Z,87.68
2019-03-04T05:07:36.206Z,87.48
2019-03-04T05:08:36.182Z,87.48
2019-03-04T05:09:36.164Z,87.39
2019-03-04T05:10:36.142Z,87.58
2019-03-04T05:11:36.118Z,87.24
2019-03-04T05:12:36.097Z,87.91
2019-03-04T05:13:36.076Z,87.39
2019-03-04T05:14:36.054Z,87.29
2019-03-04T05:15:36.031Z,87.01
2019-03-04T05:16:36.012Z,87.29
2019-03-04T05:17:36.001Z,87.20
2019-03-04T05:18:35.969Z,87.20
2019-03-04T05:19:35.948Z,87.20
2019-03-04T05:20:35.937Z,87.20
2019-03-04T05:21:35.915Z,87.10
2019-03-04T05:22:35.894Z,87.20
2019-03-04T05:23:35.865Z,86.29
2019-03-04T05:24:35.844Z,85.96
2019-03-04T05:25:35.823Z,85.67
2019-03-04T05:26:35.909Z,85.24
2019-03-04T05:27:35.788Z,84.95
2019-03-04T05:28:35.758Z,84.81
2019-03-04T05:29:35.738Z,85.58
2019-03-04T05:30:35.716Z,84.33
2019-03-04T05:31:35.695Z,83.80
2019-03-04T05:32:35.682Z,84.23
2019-03-04T05:33:35.659Z,84.28
2019-03-04T05:34:35.631Z,84.62
2019-03-04T05:35:35.620Z,84.72
2019-03-04T05:36:35.589Z,84.81
2019-03-04T05:37:35.569Z,84.81
2019-03-04T05:38:35.547Z,84.47
2019-03-04T05:39:35.525Z,83.90
2019-03-04T05:40:35.519Z,83.90
2019-03-04T05:41:35.484Z,83.51
2019-03-04T05:42:35.463Z,82.84
2019-03-04T05:43:35.448Z,83.04
2019-03-04T05:44:35.419Z,83.51
2019-03-04T05:45:35.398Z,83.33
2019-03-04T05:46:35.384Z,83.33
2019-03-04T05:47:35.364Z,83.00
2019-03-04T05:48:35.347Z,83.18
2019-03-04T05:49:35.316Z,82.90
2019-03-04T05:50:35.294Z,82.52
2019-03-04T05:51:35.282Z,82.32
2019-03-04T05:52:35.252Z,81.60
2019-03-04T05:53:35.230Z,81.03
2019-03-04T05:54:35.211Z,81.03
2019-03-04T05:55:35.187Z,80.65
2019-03-04T05:56:35.168Z,80.07
2019-03-04T05:57:35.147Z,80.07
2019-03-04T05:58:35.130Z,79.69
2019-03-04T05:59:35.205Z,79.50
2019-03-04T06:00:35.090Z,79.31
2019-03-04T06:01:35.111Z,79.69
2019-03-04T06:02:35.045Z,79.69
2019-03-04T06:03:35.021Z,79.50
2019-03-04T06:04:35.001Z,79.50
2019-03-04T06:05:34.984Z,79.69
2019-03-04T06:06:34.968Z,79.98
2019-03-04T06:07:34.942Z,80.46
2019-03-04T06:08:34.917Z,79.41
2019-03-04T06:09:34.899Z,79.50
2019-03-04T06:10:34.918Z,79.12
2019-03-04T06:11:34.855Z,78.45
2019-03-04T06:12:34.839Z,78.45
2019-03-04T06:13:34.813Z,78.45
2019-03-04T06:14:34.794Z,79.12
2019-03-04T06:15:34.780Z,78.83
2019-03-04T06:16:34.761Z,79.50
2019-03-04T06:17:34.731Z,79.69
2019-03-04T06:18:34.711Z,79.69
2019-03-04T06:19:34.699Z,79.98
2019-03-04T06:20:34.672Z,81.41
2019-03-04T06:21:34.647Z,82.08
2019-03-04T06:22:34.638Z,83.18
2019-03-04T06:23:34.606Z,83.76
2019-03-04T06:24:34.584Z,83.13
2019-03-04T06:25:34.569Z,82.52
2019-03-04T06:26:34.544Z,83.13
2019-03-04T06:27:34.529Z,84.33
2019-03-04T06:28:34.502Z,87.10
2019-03-04T06:29:34.483Z,90.06
2019-03-04T06:30:34.459Z,94.89
2019-03-04T06:31:34.440Z,99.99
2019-03-04T06:32:34.421Z,99.99
2019-03-04T06:33:34.403Z,99.99
2019-03-04T06:34:34.376Z,99.99
2019-03-04T06:35:34.356Z,99.99
2019-03-04T06:36:34.335Z,99.99
2019-03-04T06:37:34.320Z,99.99
2019-03-04T06:38:34.293Z,99.99
2019-03-04T06:39:34.272Z,99.70
2019-03-04T06:40:34.250Z,98.75
2019-03-04T06:41:34.246Z,99.99
2019-03-04T06:42:34.209Z,99.99
2019-03-04T06:43:34.186Z,99.22
2019-03-04T06:44:34.174Z,99.51
2019-03-04T06:45:34.147Z,99.04
2019-03-04T06:46:34.224Z,98.18
2019-03-04T06:47:34.101Z,99.13
2019-03-04T06:48:34.081Z,99.80
2019-03-04T06:49:34.059Z,99.13
2019-03-04T06:50:34.037Z,96.94
2019-03-04T06:51:34.015Z,97.22
2019-03-04T06:52:33.993Z,95.79
2019-03-04T06:53:33.971Z,95.51
2019-03-04T06:54:33.951Z,95.32
2019-03-04T06:55:33.929Z,96.56
2019-03-04T06:56:33.910Z,97.03
2019-03-04T06:57:33.885Z,97.61
2019-03-04T06:58:33.862Z,98.51
2019-03-04T06:59:33.903Z,98.60
2019-03-04T07:00:33.820Z,96.12
2019-03-04T07:01:33.807Z,96.12
2019-03-04T07:02:33.776Z,95.75
2019-03-04T07:03:33.759Z,92.98
2019-03-04T07:04:33.731Z,93.08
2019-03-04T07:05:33.711Z,93.46
2019-03-04T07:06:33.696Z,93.65
2019-03-04T07:07:33.665Z,94.70
2019-03-04T07:08:33.648Z,94.89
2019-03-04T07:09:33.624Z,95.84
2019-03-04T07:10:33.602Z,95.84
2019-03-04T07:11:33.579Z,96.89
2019-03-04T07:12:33.556Z,95.84
2019-03-04T07:13:33.534Z,95.84
2019-03-04T07:14:33.515Z,96.80
2019-03-04T07:15:33.492Z,96.98
2019-03-04T07:16:33.468Z,96.60
2019-03-04T07:17:33.449Z,94.51
2019-03-04T07:18:33.433Z,94.32
2019-03-04T07:19:33.404Z,92.98
2019-03-04T07:20:33.385Z,92.79
2019-03-04T07:21:33.371Z,92.03
2019-03-04T07:22:33.347Z,90.60
2019-03-04T07:23:33.321Z,90.31
2019-03-04T07:24:33.295Z,90.60
2019-03-04T07:25:33.270Z,90.60
2019-03-04T07:26:33.249Z,90.75
2019-03-04T07:27:33.229Z,91.22
2019-03-04T07:28:33.212Z,90.17
2019-03-04T07:29:33.182Z,90.60
2019-03-04T07:30:33.162Z,89.41
2019-03-04T07:31:33.138Z,89.98
2019-03-04T07:32:33.122Z,88.18
2019-03-04T07:33:33.095Z,88.27
2019-03-04T07:34:33.887Z,88.12
2019-03-04T07:35:33.049Z,87.46
2019-03-04T07:36:33.041Z,87.74
2019-03-04T07:37:33.006Z,87.74
2019-03-04T07:38:32.991Z,87.65
2019-03-04T07:39:32.961Z,88.22
2019-03-04T07:40:32.944Z,89.07
2019-03-04T07:41:32.916Z,88.31
2019-03-04T07:42:32.894Z,89.26
2019-03-04T07:43:32.873Z,88.98
2019-03-04T07:44:32.849Z,89.70
2019-03-04T07:45:32.830Z,89.79
2019-03-04T07:46:32.815Z,90.60
2019-03-04T07:47:32.788Z,91.13
2019-03-04T07:48:32.771Z,91.70
2019-03-04T07:49:32.741Z,92.08
2019-03-04T07:50:32.726Z,91.79
2019-03-04T07:51:32.694Z,91.99
2019-03-04T07:52:32.676Z,93.13
2019-03-04T07:53:32.653Z,92.65
2019-03-04T07:54:32.632Z,93.32
2019-03-04T07:55:32.618Z,93.32
2019-03-04T07:56:32.593Z,93.32
2019-03-04T07:57:32.574Z,93.13
2019-03-04T07:58:32.543Z,93.79
2019-03-04T07:59:32.533Z,93.89
2019-03-04T08:00:32.518Z,92.98
2019-03-04T08:01:32.483Z,93.37
2019-03-04T08:02:32.455Z,93.37
2019-03-04T08:03:32.432Z,93.08
2019-03-04T08:04:32.411Z,92.89
2019-03-04T08:05:32.390Z,93.46
2019-03-04T08:06:32.380Z,93.08
2019-03-04T08:07:32.347Z,93.55
2019-03-04T08:08:32.338Z,94.41
2019-03-04T08:09:32.308Z,94.79
2019-03-04T08:10:32.292Z,95.75
2019-03-04T08:11:32.262Z,96.41
2019-03-04T08:12:32.238Z,95.75
2019-03-04T08:13:32.231Z,95.94
2019-03-04T08:14:32.198Z,95.17
2019-03-04T08:15:32.179Z,94.84
2019-03-04T08:16:32.158Z,94.84
2019-03-04T08:17:32.131Z,93.12
2019-03-04T08:18:32.112Z,93.12
2019-03-04T08:19:32.097Z,93.46
2019-03-04T08:20:32.070Z,93.37
2019-03-04T08:21:32.058Z,94.13
2019-03-04T08:22:32.027Z,93.55
2019-03-04T08:23:32.013Z,93.84
2019-03-04T08:24:31.988Z,94.51
2019-03-04T08:25:31.964Z,95.65
2019-03-04T08:26:31.945Z,97.46
2019-03-04T08:27:31.920Z,99.99
2019-03-04T08:28:31.900Z,99.99
2019-03-04T08:29:31.879Z,99.99
2019-03-04T08:30:31.857Z,99.99
2019-03-04T08:31:31.842Z,99.99
2019-03-04T08:32:31.828Z,99.99
2019-03-04T08:33:31.792Z,99.99
2019-03-04T08:34:31.772Z,99.99
2019-03-04T08:35:31.848Z,99.99
2019-03-04T08:36:31.736Z,99.99
2019-03-04T08:37:31.707Z,99.99
2019-03-04T08:38:31.687Z,99.99
2019-03-04T08:39:31.662Z,99.99
2019-03-04T08:40:31.642Z,99.99
2019-03-04T08:41:31.622Z,99.99
2019-03-04T08:42:31.598Z,99.99
2019-03-04T08:43:31.576Z,99.99
2019-03-04T08:44:31.552Z,99.99
2019-03-04T08:45:31.533Z,99.99
2019-03-04T08:46:31.514Z,99.99
2019-03-04T08:47:31.486Z,99.99
2019-03-04T08:48:31.469Z,99.99
2019-03-04T08:49:31.448Z,99.99
2019-03-04T08:50:31.423Z,99.99
2019-03-04T08:51:31.401Z,99.99
2019-03-04T08:52:31.383Z,99.99
2019-03-04T08:53:31.362Z,99.99
2019-03-04T08:54:31.336Z,99.99
2019-03-04T08:55:31.327Z,99.99
2019-03-04T08:56:31.293Z,99.99
2019-03-04T08:57:31.272Z,99.99
2019-03-04T08:58:31.257Z,99.99
2019-03-04T08:59:31.229Z,99.99
2019-03-04T09:00:31.219Z,99.99
2019-03-04T09:01:31.457Z,99.99
2019-03-04T09:02:31.177Z,99.99
2019-03-04T09:03:31.155Z,99.99
2019-03-04T09:04:31.131Z,99.99
2019-03-04T09:05:31.116Z,99.99
2019-03-04T09:06:31.095Z,99.32
2019-03-04T09:07:31.066Z,97.70
2019-03-04T09:08:31.046Z,97.89
2019-03-04T09:09:31.029Z,94.89
2019-03-04T09:10:31.011Z,93.84
2019-03-04T09:11:30.996Z,94.12
2019-03-04T09:12:30.967Z,91.93
2019-03-04T09:13:30.948Z,90.79
2019-03-04T09:14:30.929Z,91.27
2019-03-04T09:15:30.908Z,89.36
2019-03-04T09:16:30.900Z,88.50
2019-03-04T09:17:30.870Z,87.83
2019-03-04T09:18:32.077Z,87.74
2019-03-04T09:19:30.838Z,86.98
2019-03-04T09:20:30.812Z,87.54
2019-03-04T09:21:30.798Z,88.31
2019-03-04T09:22:30.774Z,88.45
2019-03-04T09:23:30.763Z,86.83
2019-03-04T09:24:30.736Z,87.02
2019-03-04T09:25:30.929Z,86.83
2019-03-04T09:26:30.698Z,87.26
2019-03-04T09:27:30.677Z,87.69
2019-03-04T09:28:30.662Z,87.54
2019-03-04T09:29:30.638Z,87.07
2019-03-04T09:30:30.618Z,86.49
2019-03-04T09:31:30.597Z,87.64
2019-03-04T09:32:30.579Z,87.02
2019-03-04T09:33:30.568Z,87.31
2019-03-04T09:34:30.539Z,87.31
2019-03-04T09:35:32.567Z,86.45
2019-03-04T09:36:30.498Z,86.26
2019-03-04T09:37:30.479Z,86.36
2019-03-04T09:38:30.462Z,85.21
2019-03-04T09:39:30.438Z,85.02
2019-03-04T09:40:30.419Z,84.36
2019-03-04T09:41:30.415Z,85.50
2019-03-04T09:42:30.383Z,85.02
2019-03-04T09:43:30.365Z,85.88
2019-03-04T09:44:30.348Z,84.92
2019-03-04T09:45:38.323Z,85.88
2019-03-04T09:46:30.296Z,86.65
2019-03-04T09:47:30.277Z,86.93
2019-03-04T09:48:30.264Z,86.93
2019-03-04T09:49:30.237Z,86.93
2019-03-04T09:50:30.227Z,86.65
2019-03-04T09:51:30.195Z,85.88
2019-03-04T09:52:30.183Z,86.45
2019-03-04T09:53:39.100Z,86.16
2019-03-04T09:54:30.139Z,85.60
2019-03-04T09:55:30.114Z,84.92
2019-03-04T09:56:30.104Z,84.92
2019-03-04T09:57:30.084Z,84.83
2019-03-04T09:58:30.064Z,85.02
2019-03-04T09:59:30.041Z,85.21
2019-03-04T10:00:30.014Z,85.41
2019-03-04T10:01:29.993Z,86.07
2019-03-04T10:02:29.972Z,84.83
2019-03-04T10:03:29.954Z,85.31
2019-03-04T10:04:29.932Z,86.07
2019-03-04T10:05:29.914Z,87.40
2019-03-04T10:06:29.898Z,88.45
2019-03-04T10:07:29.880Z,89.46
2019-03-04T10:08:32.845Z,90.60
2019-03-04T10:09:29.832Z,91.94
2019-03-04T10:10:29.836Z,92.98
2019-03-04T10:11:29.791Z,94.65
2019-03-04T10:12:29.771Z,97.65
2019-03-04T10:13:29.753Z,97.41
2019-03-04T10:14:29.729Z,98.36
2019-03-04T10:15:29.709Z,99.22
2019-03-04T10:16:29.688Z,99.46
2019-03-04T10:17:29.666Z,99.60
2019-03-04T10:18:29.653Z,99.75
2019-03-04T10:19:29.625Z,98.99
2019-03-04T10:20:29.613Z,99.18
2019-03-04T10:21:29.583Z,99.51
2019-03-04T10:22:29.563Z,99.99
2019-03-04T10:23:29.550Z,99.99
2019-03-04T10:24:29.529Z,99.99
2019-03-04T10:25:29.509Z,99.99
2019-03-04T10:26:29.481Z,99.99
2019-03-04T10:27:29.461Z,99.99
2019-03-04T10:28:29.445Z,99.84
2019-03-04T10:29:29.424Z,99.27
2019-03-04T10:30:29.397Z,99.18
2019-03-04T10:31:29.384Z,98.32
2019-03-04T10:32:29.364Z,98.99
2019-03-04T10:33:29.343Z,98.89
2019-03-04T10:34:29.314Z,99.37
2019-03-04T10:35:29.298Z,98.99
2019-03-04T10:36:29.426Z,97.56
2019-03-04T10:37:29.270Z,98.70
2019-03-04T10:38:29.233Z,98.70
2019-03-04T10:39:29.211Z,99.08
2019-03-04T10:40:29.202Z,98.51
2019-03-04T10:41:29.179Z,98.60
2019-03-04T10:42:29.153Z,96.70
2019-03-04T10:43:29.137Z,96.41
2019-03-04T10:44:29.125Z,96.41
2019-03-04T10:45:29.090Z,96.98
2019-03-04T10:46:29.071Z,96.12
2019-03-04T10:47:29.061Z,95.32
2019-03-04T10:48:29.044Z,93.70
2019-03-04T10:49:29.011Z,93.22
2019-03-04T10:50:28.990Z,93.22
2019-03-04T10:51:28.970Z,93.51
2019-03-04T10:52:28.955Z,93.98
2019-03-04T10:53:28.939Z,93.79
2019-03-04T10:54:28.910Z,92.93
2019-03-04T10:55:28.906Z,91.07
2019-03-04T10:56:28.890Z,91.07
2019-03-04T10:57:28.858Z,91.74
2019-03-04T10:58:28.840Z,91.93
2019-03-04T10:59:28.822Z,93.17
2019-03-04T11:00:28.820Z,93.32
2019-03-04T11:01:30.656Z,93.70
2019-03-04T11:02:28.756Z,94.74
2019-03-04T11:03:28.740Z,94.37
2019-03-04T11:04:28.729Z,94.84
2019-03-04T11:05:28.703Z,96.03
2019-03-04T11:06:28.684Z,97.65
2019-03-04T11:07:28.666Z,99.27
2019-03-04T11:08:28.655Z,99.94
2019-03-04T11:09:28.624Z,99.99
2019-03-04T11:10:28.601Z,99.99
2019-03-04T11:11:30.145Z,99.99
2019-03-04T11:12:28.619Z,99.99
2019-03-04T11:13:28.541Z,99.99
2019-03-04T11:14:28.522Z,99.99
2019-03-04T11:15:28.521Z,99.99
2019-03-04T11:16:28.481Z,99.99
2019-03-04T11:17:28.469Z,99.99
2019-03-04T11:18:28.446Z,99.99
2019-03-04T11:19:28.423Z,99.99
2019-03-04T11:20:28.398Z,99.99
2019-03-04T11:21:28.377Z,99.99
2019-03-04T11:22:28.366Z,99.99
2019-03-04T11:23:28.356Z,99.99
2019-03-04T11:24:28.328Z,99.99
2019-03-04T11:25:28.307Z,99.99
2019-03-04T11:26:28.273Z,99.99
2019-03-04T11:27:28.249Z,99.99
2019-03-04T11:28:28.230Z,99.99
2019-03-04T11:29:28.208Z,99.99
2019-03-04T11:30:28.186Z,99.99
2019-03-04T11:31:28.172Z,99.99
2019-03-04T11:32:28.141Z,99.99
2019-03-04T11:33:28.129Z,99.99
2019-03-04T11:34:28.098Z,99.99
2019-03-04T11:35:28.077Z,99.99
2019-03-04T11:36:28.054Z,99.99
2019-03-04T11:37:28.040Z,99.99
2019-03-04T11:38:28.011Z,99.99
2019-03-04T11:39:27.991Z,99.99
2019-03-04T11:40:27.986Z,99.99
2019-03-04T11:41:27.945Z,99.99
2019-03-04T11:42:27.925Z,99.99
2019-03-04T11:43:27.908Z,99.99
2019-03-04T11:44:27.901Z,99.99
2019-03-04T11:45:27.858Z,99.99
2019-03-04T11:46:27.852Z,99.99
2019-03-04T11:47:27.936Z,99.99
2019-03-04T11:48:27.792Z,99.99
2019-03-04T11:49:27.787Z,99.99
2019-03-04T11:50:27.761Z,99.99
2019-03-04T11:51:27.874Z,99.99
2019-03-04T11:52:27.724Z,99.99
2019-03-04T11:53:27.684Z,99.99
2019-03-04T11:54:27.674Z,99.99
2019-03-04T11:55:27.645Z,99.99
2019-03-04T11:56:27.632Z,99.99
2019-03-04T11:57:27.609Z,99.99
2019-03-04T11:58:27.571Z,99.99
2019-03-04T11:59:27.555Z,99.99
2019-03-04T12:00:27.536Z,99.99
2019-03-04T12:01:27.508Z,99.99
2019-03-04T12:02:27.486Z,99.99
2019-03-04T12:03:27.463Z,99.99
2019-03-04T12:04:27.442Z,99.99
2019-03-04T12:05:27.426Z,99.99
2019-03-04T12:06:27.400Z,99.99
2019-03-04T12:07:27.380Z,99.99
2019-03-04T12:08:27.360Z,99.99
2019-03-04T12:09:27.341Z,99.99
2019-03-04T12:10:27.327Z,99.99
2019-03-04T12:11:27.302Z,99.99
2019-03-04T12:12:27.268Z,99.99
2019-03-04T12:13:27.406Z,99.99
2019-03-04T12:14:27.249Z,99.99
2019-03-04T12:15:27.204Z,99.99
2019-03-04T12:16:27.182Z,99.99
2019-03-04T12:17:27.171Z,99.99
2019-03-04T12:18:27.149Z,99.99
2019-03-04T12:19:28.771Z,99.99
2019-03-04T12:20:27.099Z,99.99
2019-03-04T12:21:27.079Z,99.99
2019-03-04T12:22:27.074Z,99.99
2019-03-04T12:23:27.035Z,99.99
2019-03-04T12:24:27.015Z,99.99
2019-03-04T12:25:27.004Z,99.99
2019-03-04T12:26:26.976Z,99.99
2019-03-04T12:27:26.959Z,99.99
2019-03-04T12:28:26.931Z,99.99
2019-03-04T12:29:26.926Z,99.99
2019-03-04T12:30:26.893Z,99.99
2019-03-04T12:31:28.449Z,99.99
2019-03-04T12:32:26.848Z,99.99
2019-03-04T12:33:26.844Z,99.99
2019-03-04T12:34:26.805Z,99.99
2019-03-04T12:35:26.784Z,99.99
2019-03-04T12:36:26.768Z,99.99
2019-03-04T12:37:26.751Z,99.99
2019-03-04T12:38:26.720Z,99.99
2019-03-04T12:39:26.713Z,99.99
2019-03-04T12:40:26.738Z,99.99
2019-03-04T12:41:26.656Z,99.99
2019-03-04T12:42:26.640Z,99.99
2019-03-04T12:43:26.679Z,99.99
2019-03-04T12:44:26.591Z,99.99
2019-03-04T12:45:33.948Z,99.99
2019-03-04T12:46:26.561Z,99.99
2019-03-04T12:47:26.528Z,99.99
2019-03-04T12:48:26.508Z,99.99
2019-03-04T12:49:26.500Z,99.99
2019-03-04T12:50:26.511Z,99.99
2019-03-04T12:51:26.443Z,99.99
2019-03-04T12:52:26.432Z,99.99